CST,Max TemperatureF,Mean TemperatureF,Min TemperatureF,Max Dew PointF,MeanDew PointF,Min DewpointF,Max Humidity, Mean Humidity, Min Humidity, Max Sea Level PressureIn, Mean Sea Level PressureIn, Min Sea Level PressureIn, Max VisibilityMiles, Mean VisibilityMiles, Min VisibilityMiles, Max Wind SpeedMPH, Mean Wind SpeedMPH, Max Gust SpeedMPH,PrecipitationIn, CloudCover, Events, WindDirDegrees
2011-12-1,38,34,30,32,27,18,90,74,44,30.36,30.22,30.05,10,9,2,18,10,23,0.00,5,Snow,345
2011-12-2,37,26,14,28,16,10,84,67,39,30.39,30.30,30.13,10,10,10,18,8,24,0.00,0,,204
2011-12-3,37,36,33,35,34,32,96,93,89,30.12,30.03,29.89,4,2,0,15,8,21,0.38,8,Snow,206
2011-12-4,32,28,25,31,26,22,94,87,83,30.26,30.05,29.85,10,8,2,12,8,,0.00,8,Snow,320
2011-12-5,26,23,20,22,19,17,87,84,78,30.41,30.36,30.29,10,10,7,13,8,,0.00,8,,333
2011-12-6,23,20,18,19,16,14,86,85,82,30.38,30.27,30.11,10,9,3,13,7,17,0.00,8,Snow,322
2011-12-7,25,18,10,19,13,5,84,75,69,30.08,30.01,29.94,10,10,10,16,11,22,0.00,5,,260
2011-12-8,28,23,17,22,14,9,85,71,53,30.18,30.14,30.07,10,10,10,15,8,,0.00,3,,267
2011-12-9,16,9,2,7,2,-4,76,69,61,30.35,30.26,30.18,10,10,10,13,9,20,0.00,0,,268
2011-12-10,29,16,2,24,8,-5,82,73,61,30.37,30.30,30.21,10,9,7,20,11,28,0.00,2,,204
2011-12-11,37,32,26,35,29,24,93,88,80,30.18,30.16,30.15,7,4,1,20,14,29,0.00,4,,200
2011-12-12,39,38,37,36,35,34,89,85,82,30.25,30.20,30.16,10,8,4,15,10,18,0.00,8,Rain,192
2011-12-13,39,38,36,35,34,34,92,88,83,30.33,30.28,30.16,10,6,3,8,4,,0.00,8,,156
2011-12-14,44,40,37,43,40,36,96,95,92,30.10,29.80,29.59,10,1,0,18,6,24,0.16,8,Fog-Rain,157
2011-12-15,42,35,28,41,29,20,96,79,66,30.20,29.90,29.63,10,9,4,30,19,39,0.00,6,,305
2011-12-16,31,25,19,25,20,16,91,79,64,30.38,30.33,30.28,10,8,1,12,5,,0.06,4,Snow,313
2011-12-17,34,30,25,28,26,23,93,87,78,30.28,30.18,30.10,10,8,5,13,4,16,0.01,6,Snow,246
2011-12-18,50,37,24,37,31,21,91,77,58,30.15,29.90,29.75,10,10,10,18,11,29,0.00,0,,211
2011-12-19,41,36,32,37,31,24,86,79,70,30.22,29.98,29.75,10,10,7,16,13,24,0.00,4,,337
2011-12-20,34,28,23,28,24,19,92,83,74,30.22,29.99,29.74,10,9,5,7,2,,0.00,1,,189
2011-12-21,43,35,27,33,30,26,96,86,58,29.95,29.74,29.66,10,6,0,14,6,20,0.00,6,Fog-Snow,247
2011-12-22,32,28,23,30,22,14,92,74,66,30.28,30.16,29.96,10,10,2,18,13,23,0.00,6,Snow,353
2011-12-23,33,24,16,25,19,11,84,73,66,30.31,30.15,30.01,10,10,2,25,10,32,0.00,4,Snow,224
2011-12-24,42,32,21,28,23,18,86,68,53,30.18,30.12,30.05,10,10,10,17,10,26,0.00,0,,238
2011-12-25,43,38,33,29,26,24,73,62,51,30.28,30.15,30.01,10,10,10,24,16,30,0.00,0,,300
2011-12-26,48,38,27,28,25,23,85,65,43,30.22,29.95,29.75,10,10,10,28,13,45,0.00,2,,205
2011-12-27,39,31,23,28,21,14,78,67,54,30.01,29.84,29.66,10,10,10,26,14,34,0.00,4,,332
2011-12-28,36,28,21,25,19,13,83,70,53,30.01,29.88,29.71,10,10,10,17,5,24,0.00,4,,173
2011-12-29,37,34,30,29,27,25,86,80,70,29.66,29.55,29.44,10,9,7,18,10,23,0.00,4,,286
2011-12-30,31,30,27,29,27,25,93,89,86,29.84,29.67,29.54,7,4,0,10,7,,0.17,8,Fog-Snow,26
2011-12-31,37,30,24,35,31,23,96,92,88,29.84,29.69,29.58,7,4,0,22,8,31,0.01,8,Fog-Rain-Snow,155